sensor_id;sensor_type;location;lat;lon;timestamp;P1;durP1;ratioP1;P2;durP2;ratioP2
75516;SDS011;64097;52.548;13.406;2022-11-23T06:02:20;28.38;;;19.23;;
75516;SDS011;64097;52.548;13.406;2022-11-23T06:04:46;27.95;;;18.10;;
75516;SDS011;64097;52.548;13.406;2022-11-23T06:07:12;31.73;;;20.02;;
75516;SDS011;64097;52.548;13.406;2022-11-23T06:09:37;29.90;;;20.20;;
75516;SDS011;64097;52.548;13.406;2022-11-23T06:12:03;30.77;;;19.67;;
75516;SDS011;64097;52.548;13.406;2022-11-23T06:14:29;30.13;;;20.10;;
75516;SDS011;64097;52.548;13.406;2022-11-23T06:16:55;35.72;;;23.77;;
75516;SDS011;64097;52.548;13.406;2022-11-23T06:19:20;27.25;;;18.90;;
75516;SDS011;64097;52.548;13.406;2022-11-23T06:21:46;27.67;;;18.70;;
75516;SDS011;64097;52.548;13.406;2022-11-23T06:24:12;28.40;;;18.75;;
75516;SDS011;64097;52.548;13.406;2022-11-23T06:26:38;29.80;;;19.05;;
75516;SDS011;64097;52.548;13.406;2022-11-23T06:29:04;30.60;;;19.73;;
75516;SDS011;64097;52.548;13.406;2022-11-23T06:31:30;30.90;;;20.67;;
75516;SDS011;64097;52.548;13.406;2022-11-23T06:33:55;31.17;;;20.05;;
75516;SDS011;64097;52.548;13.406;2022-11-23T06:36:21;30.77;;;19.67;;
75516;SDS011;64097;52.548;13.406;2022-11-23T06:38:47;32.53;;;21.42;;
75516;SDS011;64097;52.548;13.406;2022-11-23T06:41:13;34.40;;;21.42;;
75516;SDS011;64097;52.548;13.406;2022-11-23T06:43:38;30.90;;;18.40;;
75516;SDS011;64097;52.548;13.406;2022-11-23T06:46:05;29.55;;;18.95;;
75516;SDS011;64097;52.548;13.406;2022-11-23T06:48:32;28.30;;;18.73;;
75516;SDS011;64097;52.548;13.406;2022-11-23T06:50:58;31.95;;;20.85;;
75516;SDS011;64097;52.548;13.406;2022-11-23T06:53:24;28.95;;;18.92;;
75516;SDS011;64097;52.548;13.406;2022-11-23T06:55:51;31.17;;;19.98;;
75516;SDS011;64097;52.548;13.406;2022-11-23T06:58:17;30.40;;;18.85;;
75516;SDS011;64097;52.548;13.406;2022-11-23T07:00:43;27.05;;;18.40;;
75516;SDS011;64097;52.548;13.406;2022-11-23T07:03:17;31.95;;;20.60;;
75516;SDS011;64097;52.548;13.406;2022-11-23T07:05:45;28.15;;;18.73;;
75516;SDS011;64097;52.548;13.406;2022-11-23T07:08:11;29.23;;;19.25;;
75516;SDS011;64097;52.548;13.406;2022-11-23T07:10:36;27.80;;;18.10;;
75516;SDS011;64097;52.548;13.406;2022-11-23T07:13:06;30.80;;;20.17;;
75516;SDS011;64097;52.548;13.406;2022-11-23T07:15:33;31.65;;;19.95;;
75516;SDS011;64097;52.548;13.406;2022-11-23T07:17:59;36.30;;;23.10;;
75516;SDS011;64097;52.548;13.406;2022-11-23T07:20:25;29.90;;;19.95;;
75516;SDS011;64097;52.548;13.406;2022-11-23T07:23:01;30.67;;;19.23;;
75516;SDS011;64097;52.548;13.406;2022-11-23T07:25:32;29.95;;;20.00;;
75516;SDS011;64097;52.548;13.406;2022-11-23T07:27:59;31.77;;;20.77;;
75516;SDS011;64097;52.548;13.406;2022-11-23T07:30:27;30.38;;;19.15;;
75516;SDS011;64097;52.548;13.406;2022-11-23T07:32:57;28.48;;;18.92;;
75516;SDS011;64097;52.548;13.406;2022-11-23T07:35:27;31.10;;;20.80;;
75516;SDS011;64097;52.548;13.406;2022-11-23T07:37:52;29.33;;;19.42;;
75516;SDS011;64097;52.548;13.406;2022-11-23T07:40:18;30.23;;;19.60;;
75516;SDS011;64097;52.548;13.406;2022-11-23T07:42:44;27.85;;;18.98;;
75516;SDS011;64097;52.548;13.406;2022-11-23T07:45:10;31.83;;;21.38;;
75516;SDS011;64097;52.548;13.406;2022-11-23T07:47:36;31.58;;;20.08;;
75516;SDS011;64097;52.548;13.406;2022-11-23T07:50:03;31.30;;;20.98;;
75516;SDS011;64097;52.548;13.406;2022-11-23T07:52:30;33.45;;;21.92;;
75516;SDS011;64097;52.548;13.406;2022-11-23T07:54:56;34.85;;;21.88;;
75516;SDS011;64097;52.548;13.406;2022-11-23T07:57:21;31.05;;;20.05;;
75516;SDS011;64097;52.548;13.406;2022-11-23T07:59:47;29.25;;;20.13;;
75516;SDS011;64097;52.548;13.406;2022-11-23T08:02:13;26.60;;;18.27;;
75516;SDS011;64097;52.548;13.406;2022-11-23T08:04:39;33.17;;;21.60;;
75516;SDS011;64097;52.548;13.406;2022-11-23T08:07:05;29.25;;;18.98;;
75516;SDS011;64097;52.548;13.406;2022-11-23T08:09:30;28.80;;;19.08;;
75516;SDS011;64097;52.548;13.406;2022-11-23T08:11:56;27.40;;;19.17;;
75516;SDS011;64097;52.548;13.406;2022-11-23T08:14:22;27.63;;;18.15;;
75516;SDS011;64097;52.548;13.406;2022-11-23T08:16:49;33.65;;;20.80;;
75516;SDS011;64097;52.548;13.406;2022-11-23T08:19:15;26.67;;;17.45;;
75516;SDS011;64097;52.548;13.406;2022-11-23T08:21:41;29.55;;;19.50;;
75516;SDS011;64097;52.548;13.406;2022-11-23T08:24:07;32.90;;;21.27;;
75516;SDS011;64097;52.548;13.406;2022-11-23T08:26:33;27.55;;;19.38;;
75516;SDS011;64097;52.548;13.406;2022-11-23T08:28:58;31.55;;;21.13;;
75516;SDS011;64097;52.548;13.406;2022-11-23T08:31:24;28.63;;;20.30;;
75516;SDS011;64097;52.548;13.406;2022-11-23T08:33:50;31.52;;;20.27;;
75516;SDS011;64097;52.548;13.406;2022-11-23T08:36:15;28.38;;;19.13;;
75516;SDS011;64097;52.548;13.406;2022-11-23T08:38:42;30.70;;;20.20;;
75516;SDS011;64097;52.548;13.406;2022-11-23T08:41:07;28.05;;;19.15;;
75516;SDS011;64097;52.548;13.406;2022-11-23T08:43:33;30.45;;;19.67;;
75516;SDS011;64097;52.548;13.406;2022-11-23T08:46:00;30.55;;;19.50;;
75516;SDS011;64097;52.548;13.406;2022-11-23T08:48:26;28.58;;;18.33;;
75516;SDS011;64097;52.548;13.406;2022-11-23T08:50:52;29.17;;;19.65;;
75516;SDS011;64097;52.548;13.406;2022-11-23T08:53:18;27.40;;;18.75;;
75516;SDS011;64097;52.548;13.406;2022-11-23T08:55:44;27.80;;;18.88;;
75516;SDS011;64097;52.548;13.406;2022-11-23T08:58:10;28.00;;;18.02;;
75516;SDS011;64097;52.548;13.406;2022-11-23T09:00:36;25.85;;;18.50;;
75516;SDS011;64097;52.548;13.406;2022-11-23T09:03:02;25.20;;;18.20;;
75516;SDS011;64097;52.548;13.406;2022-11-23T09:05:28;29.23;;;19.45;;
75516;SDS011;64097;52.548;13.406;2022-11-23T09:07:55;27.77;;;18.52;;
75516;SDS011;64097;52.548;13.406;2022-11-23T09:10:24;24.88;;;17.02;;
75516;SDS011;64097;52.548;13.406;2022-11-23T09:12:50;24.20;;;17.15;;
75516;SDS011;64097;52.548;13.406;2022-11-23T09:15:15;26.67;;;17.77;;
75516;SDS011;64097;52.548;13.406;2022-11-23T09:17:41;23.85;;;16.63;;
75516;SDS011;64097;52.548;13.406;2022-11-23T09:20:07;24.75;;;18.10;;
75516;SDS011;64097;52.548;13.406;2022-11-23T09:22:34;25.73;;;17.25;;
75516;SDS011;64097;52.548;13.406;2022-11-23T09:25:00;22.13;;;15.75;;
75516;SDS011;64097;52.548;13.406;2022-11-23T09:27:26;23.95;;;17.13;;
75516;SDS011;64097;52.548;13.406;2022-11-23T09:29:52;27.60;;;18.92;;
75516;SDS011;64097;52.548;13.406;2022-11-23T09:32:18;26.30;;;17.60;;
75516;SDS011;64097;52.548;13.406;2022-11-23T09:34:44;26.52;;;17.77;;
75516;SDS011;64097;52.548;13.406;2022-11-23T09:37:10;27.17;;;19.10;;
75516;SDS011;64097;52.548;13.406;2022-11-23T09:39:36;25.88;;;17.63;;
75516;SDS011;64097;52.548;13.406;2022-11-23T09:42:04;28.85;;;19.08;;
75516;SDS011;64097;52.548;13.406;2022-11-23T09:52:32;26.17;;;17.92;;
75516;SDS011;64097;52.548;13.406;2022-11-23T09:55:02;33.10;;;20.30;;
75516;SDS011;64097;52.548;13.406;2022-11-23T09:57:41;28.58;;;19.70;;
75516;SDS011;64097;52.548;13.406;2022-11-23T10:00:18;25.38;;;18.02;;
75516;SDS011;64097;52.548;13.406;2022-11-23T10:02:46;24.67;;;17.52;;
75516;SDS011;64097;52.548;13.406;2022-11-23T10:05:15;23.05;;;15.20;;
75516;SDS011;64097;52.548;13.406;2022-11-23T10:10:24;23.10;;;16.25;;
75516;SDS011;64097;52.548;13.406;2022-11-23T10:18:35;26.95;;;17.70;;
75516;SDS011;64097;52.548;13.406;2022-11-23T10:24:32;27.55;;;19.85;;
75516;SDS011;64097;52.548;13.406;2022-11-23T10:27:11;25.83;;;17.33;;
75516;SDS011;64097;52.548;13.406;2022-11-23T10:29:40;26.13;;;18.27;;
75516;SDS011;64097;52.548;13.406;2022-11-23T10:32:14;25.20;;;18.80;;
75516;SDS011;64097;52.548;13.406;2022-11-23T10:35:01;24.75;;;17.75;;
75516;SDS011;64097;52.548;13.406;2022-11-23T10:37:37;26.50;;;19.48;;
75516;SDS011;64097;52.548;13.406;2022-11-23T10:42:58;24.20;;;17.02;;
75516;SDS011;64097;52.548;13.406;2022-11-23T10:45:28;26.15;;;18.85;;
75516;SDS011;64097;52.548;13.406;2022-11-23T10:47:56;28.23;;;20.23;;
75516;SDS011;64097;52.548;13.406;2022-11-23T10:52:58;27.63;;;19.23;;
75516;SDS011;64097;52.548;13.406;2022-11-23T10:55:29;20.65;;;15.13;;
75516;SDS011;64097;52.548;13.406;2022-11-23T10:57:57;24.10;;;16.58;;
75516;SDS011;64097;52.548;13.406;2022-11-23T11:00:24;20.63;;;15.38;;
75516;SDS011;64097;52.548;13.406;2022-11-23T11:02:55;22.35;;;16.25;;
75516;SDS011;64097;52.548;13.406;2022-11-23T11:07:54;20.67;;;14.88;;
75516;SDS011;64097;52.548;13.406;2022-11-23T11:14:08;21.08;;;14.93;;
75516;SDS011;64097;52.548;13.406;2022-11-23T11:16:20;24.90;;;16.25;;
75516;SDS011;64097;52.548;13.406;2022-11-23T11:18:49;21.95;;;16.58;;
75516;SDS011;64097;52.548;13.406;2022-11-23T11:21:18;22.55;;;16.23;;
75516;SDS011;64097;52.548;13.406;2022-11-23T11:23:51;19.95;;;14.63;;
75516;SDS011;64097;52.548;13.406;2022-11-23T11:26:25;21.83;;;15.82;;
75516;SDS011;64097;52.548;13.406;2022-11-23T11:28:53;23.88;;;17.45;;
75516;SDS011;64097;52.548;13.406;2022-11-23T11:34:15;20.10;;;14.77;;
75516;SDS011;64097;52.548;13.406;2022-11-23T11:36:59;24.67;;;17.27;;
75516;SDS011;64097;52.548;13.406;2022-11-23T11:39:46;23.05;;;16.35;;
75516;SDS011;64097;52.548;13.406;2022-11-23T11:42:28;22.23;;;15.60;;
75516;SDS011;64097;52.548;13.406;2022-11-23T11:44:58;22.30;;;15.52;;
75516;SDS011;64097;52.548;13.406;2022-11-23T11:47:29;20.00;;;13.65;;
75516;SDS011;64097;52.548;13.406;2022-11-23T11:50:02;27.38;;;15.77;;
75516;SDS011;64097;52.548;13.406;2022-11-23T11:53:02;22.40;;;15.32;;
75516;SDS011;64097;52.548;13.406;2022-11-23T11:55:49;20.65;;;14.82;;
75516;SDS011;64097;52.548;13.406;2022-11-23T11:58:28;25.05;;;15.90;;
75516;SDS011;64097;52.548;13.406;2022-11-23T12:01:02;21.55;;;15.07;;
75516;SDS011;64097;52.548;13.406;2022-11-23T12:06:05;20.80;;;15.50;;
75516;SDS011;64097;52.548;13.406;2022-11-23T12:08:51;20.65;;;13.82;;
75516;SDS011;64097;52.548;13.406;2022-11-23T12:11:22;18.10;;;13.30;;
75516;SDS011;64097;52.548;13.406;2022-11-23T12:13:48;25.52;;;17.08;;
75516;SDS011;64097;52.548;13.406;2022-11-23T12:25:01;20.30;;;14.40;;
75516;SDS011;64097;52.548;13.406;2022-11-23T12:36:12;18.75;;;14.00;;
75516;SDS011;64097;52.548;13.406;2022-11-23T12:47:38;20.40;;;14.30;;
75516;SDS011;64097;52.548;13.406;2022-11-23T12:50:18;21.43;;;16.37;;
75516;SDS011;64097;52.548;13.406;2022-11-23T12:53:22;20.85;;;14.75;;
75516;SDS011;64097;52.548;13.406;2022-11-23T12:58:41;19.40;;;14.40;;
75516;SDS011;64097;52.548;13.406;2022-11-23T13:04:13;21.75;;;15.02;;
75516;SDS011;64097;52.548;13.406;2022-11-23T13:23:13;21.17;;;15.43;;
75516;SDS011;64097;52.548;13.406;2022-11-23T13:25:39;20.42;;;13.90;;
75516;SDS011;64097;52.548;13.406;2022-11-23T13:33:39;22.00;;;15.27;;
75516;SDS011;64097;52.548;13.406;2022-11-23T13:36:10;18.92;;;14.30;;
75516;SDS011;64097;52.548;13.406;2022-11-23T13:38:58;18.92;;;13.95;;
75516;SDS011;64097;52.548;13.406;2022-11-23T13:46:44;21.85;;;15.02;;
75516;SDS011;64097;52.548;13.406;2022-11-23T13:49:28;24.23;;;15.27;;
75516;SDS011;64097;52.548;13.406;2022-11-23T13:54:58;21.10;;;14.10;;
75516;SDS011;64097;52.548;13.406;2022-11-23T14:05:59;23.63;;;16.05;;
75516;SDS011;64097;52.548;13.406;2022-11-23T14:08:26;16.90;;;12.15;;
75516;SDS011;64097;52.548;13.406;2022-11-23T14:10:52;20.50;;;14.43;;
75516;SDS011;64097;52.548;13.406;2022-11-23T14:13:23;18.92;;;13.40;;
75516;SDS011;64097;52.548;13.406;2022-11-23T14:15:56;16.73;;;12.43;;
75516;SDS011;64097;52.548;13.406;2022-11-23T14:34:35;17.55;;;12.57;;
75516;SDS011;64097;52.548;13.406;2022-11-23T14:37:14;19.27;;;13.13;;
75516;SDS011;64097;52.548;13.406;2022-11-23T14:42:17;16.33;;;12.00;;
75516;SDS011;64097;52.548;13.406;2022-11-23T14:44:44;20.63;;;13.90;;
75516;SDS011;64097;52.548;13.406;2022-11-23T14:47:11;17.98;;;13.50;;
75516;SDS011;64097;52.548;13.406;2022-11-23T14:49:46;18.65;;;13.80;;
75516;SDS011;64097;52.548;13.406;2022-11-23T14:52:17;18.15;;;13.27;;
75516;SDS011;64097;52.548;13.406;2022-11-23T14:54:48;19.95;;;14.40;;
75516;SDS011;64097;52.548;13.406;2022-11-23T14:57:15;16.00;;;12.60;;
75516;SDS011;64097;52.548;13.406;2022-11-23T14:59:46;19.17;;;14.25;;
75516;SDS011;64097;52.548;13.406;2022-11-23T15:04:51;20.65;;;14.98;;
75516;SDS011;64097;52.548;13.406;2022-11-23T15:07:27;20.52;;;14.50;;
75516;SDS011;64097;52.548;13.406;2022-11-23T15:12:43;20.27;;;14.45;;
75516;SDS011;64097;52.548;13.406;2022-11-23T15:15:15;19.30;;;14.80;;
75516;SDS011;64097;52.548;13.406;2022-11-23T15:17:52;23.40;;;16.65;;
75516;SDS011;64097;52.548;13.406;2022-11-23T15:20:20;21.08;;;16.38;;
75516;SDS011;64097;52.548;13.406;2022-11-23T15:22:47;23.25;;;16.90;;
75516;SDS011;64097;52.548;13.406;2022-11-23T15:25:14;19.80;;;15.38;;
75516;SDS011;64097;52.548;13.406;2022-11-23T15:27:43;26.88;;;19.95;;
75516;SDS011;64097;52.548;13.406;2022-11-23T15:32:55;23.73;;;17.23;;
75516;SDS011;64097;52.548;13.406;2022-11-23T15:35:22;19.15;;;15.20;;
75516;SDS011;64097;52.548;13.406;2022-11-23T15:37:53;22.27;;;16.13;;
75516;SDS011;64097;52.548;13.406;2022-11-23T15:40:19;18.65;;;14.20;;
75516;SDS011;64097;52.548;13.406;2022-11-23T15:42:48;22.33;;;15.65;;
75516;SDS011;64097;52.548;13.406;2022-11-23T15:48:09;22.13;;;16.00;;
75516;SDS011;64097;52.548;13.406;2022-11-23T15:53:16;18.35;;;13.57;;
75516;SDS011;64097;52.548;13.406;2022-11-23T15:55:43;21.15;;;15.18;;
75516;SDS011;64097;52.548;13.406;2022-11-23T15:58:12;21.60;;;15.45;;
75516;SDS011;64097;52.548;13.406;2022-11-23T16:00:50;21.38;;;14.73;;
75516;SDS011;64097;52.548;13.406;2022-11-23T16:08:38;21.17;;;15.27;;
75516;SDS011;64097;52.548;13.406;2022-11-23T16:11:13;21.33;;;15.13;;
75516;SDS011;64097;52.548;13.406;2022-11-23T16:13:47;19.98;;;14.80;;
75516;SDS011;64097;52.548;13.406;2022-11-23T16:16:14;21.42;;;15.85;;
75516;SDS011;64097;52.548;13.406;2022-11-23T16:18:49;20.23;;;14.88;;
75516;SDS011;64097;52.548;13.406;2022-11-23T16:21:22;18.45;;;14.05;;
75516;SDS011;64097;52.548;13.406;2022-11-23T16:23:50;19.88;;;15.13;;
75516;SDS011;64097;52.548;13.406;2022-11-23T16:26:20;20.33;;;15.35;;
75516;SDS011;64097;52.548;13.406;2022-11-23T16:28:55;22.80;;;16.08;;
75516;SDS011;64097;52.548;13.406;2022-11-23T16:34:01;21.27;;;16.10;;
75516;SDS011;64097;52.548;13.406;2022-11-23T16:36:26;22.10;;;16.55;;
75516;SDS011;64097;52.548;13.406;2022-11-23T16:38:54;23.40;;;17.35;;
75516;SDS011;64097;52.548;13.406;2022-11-23T16:41:20;21.92;;;16.80;;
75516;SDS011;64097;52.548;13.406;2022-11-23T16:43:48;24.58;;;17.42;;
75516;SDS011;64097;52.548;13.406;2022-11-23T16:46:17;22.13;;;17.00;;
75516;SDS011;64097;52.548;13.406;2022-11-23T16:48:43;21.83;;;16.88;;
75516;SDS011;64097;52.548;13.406;2022-11-23T16:51:10;23.63;;;17.35;;
75516;SDS011;64097;52.548;13.406;2022-11-23T16:53:40;23.90;;;17.85;;
75516;SDS011;64097;52.548;13.406;2022-11-23T16:56:12;26.15;;;18.17;;
75516;SDS011;64097;52.548;13.406;2022-11-23T16:58:44;24.05;;;18.42;;
75516;SDS011;64097;52.548;13.406;2022-11-23T17:01:18;26.08;;;18.95;;
75516;SDS011;64097;52.548;13.406;2022-11-23T17:03:46;26.30;;;19.55;;
75516;SDS011;64097;52.548;13.406;2022-11-23T17:06:12;30.17;;;20.80;;
75516;SDS011;64097;52.548;13.406;2022-11-23T17:08:44;24.80;;;18.73;;
75516;SDS011;64097;52.548;13.406;2022-11-23T17:11:23;27.55;;;20.33;;
75516;SDS011;64097;52.548;13.406;2022-11-23T17:13:50;27.35;;;19.65;;
75516;SDS011;64097;52.548;13.406;2022-11-23T17:16:19;28.30;;;20.35;;
75516;SDS011;64097;52.548;13.406;2022-11-23T17:18:46;28.20;;;20.45;;
75516;SDS011;64097;52.548;13.406;2022-11-23T17:21:12;27.30;;;19.85;;
75516;SDS011;64097;52.548;13.406;2022-11-23T17:23:38;27.42;;;19.50;;
75516;SDS011;64097;52.548;13.406;2022-11-23T17:26:05;29.58;;;20.98;;
75516;SDS011;64097;52.548;13.406;2022-11-23T17:28:38;27.45;;;20.83;;
75516;SDS011;64097;52.548;13.406;2022-11-23T17:31:04;26.13;;;19.15;;
75516;SDS011;64097;52.548;13.406;2022-11-23T17:33:29;31.60;;;20.70;;
75516;SDS011;64097;52.548;13.406;2022-11-23T17:35:55;29.30;;;21.30;;
75516;SDS011;64097;52.548;13.406;2022-11-23T17:38:23;30.52;;;20.08;;
75516;SDS011;64097;52.548;13.406;2022-11-23T17:40:51;28.42;;;20.08;;
75516;SDS011;64097;52.548;13.406;2022-11-23T17:43:16;27.35;;;19.42;;
75516;SDS011;64097;52.548;13.406;2022-11-23T17:45:43;26.35;;;19.23;;
75516;SDS011;64097;52.548;13.406;2022-11-23T17:48:12;27.98;;;19.20;;
75516;SDS011;64097;52.548;13.406;2022-11-23T17:50:40;30.60;;;21.15;;
75516;SDS011;64097;52.548;13.406;2022-11-23T17:53:05;30.02;;;21.15;;
75516;SDS011;64097;52.548;13.406;2022-11-23T17:55:31;29.23;;;20.35;;
75516;SDS011;64097;52.548;13.406;2022-11-23T17:57:57;26.55;;;18.88;;
75516;SDS011;64097;52.548;13.406;2022-11-23T18:00:23;27.73;;;19.85;;
75516;SDS011;64097;52.548;13.406;2022-11-23T18:02:49;30.08;;;20.17;;
75516;SDS011;64097;52.548;13.406;2022-11-23T18:05:16;27.33;;;20.67;;
75516;SDS011;64097;52.548;13.406;2022-11-23T18:07:41;28.75;;;20.65;;
75516;SDS011;64097;52.548;13.406;2022-11-23T18:10:09;28.80;;;19.83;;
75516;SDS011;64097;52.548;13.406;2022-11-23T18:12:36;29.13;;;21.35;;
75516;SDS011;64097;52.548;13.406;2022-11-23T18:15:02;31.10;;;21.83;;
75516;SDS011;64097;52.548;13.406;2022-11-23T18:17:28;32.60;;;23.05;;
75516;SDS011;64097;52.548;13.406;2022-11-23T18:19:54;27.73;;;20.50;;
75516;SDS011;64097;52.548;13.406;2022-11-23T18:22:19;29.77;;;21.80;;
75516;SDS011;64097;52.548;13.406;2022-11-23T18:24:45;33.08;;;22.90;;
75516;SDS011;64097;52.548;13.406;2022-11-23T18:27:12;32.53;;;22.55;;
75516;SDS011;64097;52.548;13.406;2022-11-23T18:29:38;32.05;;;22.70;;
75516;SDS011;64097;52.548;13.406;2022-11-23T18:32:04;29.35;;;21.23;;
75516;SDS011;64097;52.548;13.406;2022-11-23T18:34:31;34.00;;;25.05;;
75516;SDS011;64097;52.548;13.406;2022-11-23T18:36:56;34.83;;;23.75;;
75516;SDS011;64097;52.548;13.406;2022-11-23T18:39:22;34.03;;;24.65;;
75516;SDS011;64097;52.548;13.406;2022-11-23T18:41:48;32.28;;;22.73;;
75516;SDS011;64097;52.548;13.406;2022-11-23T18:44:14;36.10;;;25.73;;
75516;SDS011;64097;52.548;13.406;2022-11-23T18:46:39;38.85;;;26.58;;
75516;SDS011;64097;52.548;13.406;2022-11-23T18:49:05;36.85;;;26.25;;
75516;SDS011;64097;52.548;13.406;2022-11-23T18:51:31;40.78;;;28.83;;
75516;SDS011;64097;52.548;13.406;2022-11-23T18:53:58;37.08;;;26.60;;
75516;SDS011;64097;52.548;13.406;2022-11-23T18:56:23;37.75;;;26.80;;
75516;SDS011;64097;52.548;13.406;2022-11-23T18:58:49;34.22;;;24.55;;
75516;SDS011;64097;52.548;13.406;2022-11-23T19:01:16;40.30;;;27.83;;
75516;SDS011;64097;52.548;13.406;2022-11-23T19:03:44;39.65;;;27.42;;
75516;SDS011;64097;52.548;13.406;2022-11-23T19:06:11;39.10;;;28.67;;
75516;SDS011;64097;52.548;13.406;2022-11-23T19:08:38;33.83;;;24.55;;
75516;SDS011;64097;52.548;13.406;2022-11-23T19:11:06;35.25;;;26.17;;
75516;SDS011;64097;52.548;13.406;2022-11-23T19:13:36;36.95;;;25.48;;
75516;SDS011;64097;52.548;13.406;2022-11-23T19:16:09;34.92;;;24.77;;
75516;SDS011;64097;52.548;13.406;2022-11-23T19:18:36;41.58;;;27.70;;
75516;SDS011;64097;52.548;13.406;2022-11-23T19:21:15;36.20;;;24.85;;
75516;SDS011;64097;52.548;13.406;2022-11-23T19:23:42;33.78;;;24.52;;
75516;SDS011;64097;52.548;13.406;2022-11-23T19:26:09;36.88;;;27.02;;
75516;SDS011;64097;52.548;13.406;2022-11-23T19:28:34;40.40;;;28.48;;
75516;SDS011;64097;52.548;13.406;2022-11-23T19:31:10;37.13;;;26.65;;
75516;SDS011;64097;52.548;13.406;2022-11-23T19:33:38;40.72;;;28.33;;
75516;SDS011;64097;52.548;13.406;2022-11-23T19:36:08;37.10;;;26.88;;
75516;SDS011;64097;52.548;13.406;2022-11-23T19:38:35;38.40;;;27.52;;
75516;SDS011;64097;52.548;13.406;2022-11-23T19:41:01;41.67;;;29.27;;
75516;SDS011;64097;52.548;13.406;2022-11-23T19:43:27;35.10;;;24.38;;
75516;SDS011;64097;52.548;13.406;2022-11-23T19:45:53;36.33;;;26.50;;
75516;SDS011;64097;52.548;13.406;2022-11-23T19:48:24;41.92;;;28.98;;
75516;SDS011;64097;52.548;13.406;2022-11-23T19:51:24;41.03;;;27.10;;
75516;SDS011;64097;52.548;13.406;2022-11-23T19:53:44;39.55;;;27.45;;
75516;SDS011;64097;52.548;13.406;2022-11-23T19:58:41;38.65;;;25.83;;
75516;SDS011;64097;52.548;13.406;2022-11-23T20:01:11;36.38;;;26.55;;
75516;SDS011;64097;52.548;13.406;2022-11-23T20:03:39;35.08;;;24.98;;
75516;SDS011;64097;52.548;13.406;2022-11-23T20:06:11;38.03;;;25.67;;
75516;SDS011;64097;52.548;13.406;2022-11-23T20:08:55;33.25;;;23.85;;
75516;SDS011;64097;52.548;13.406;2022-11-23T20:11:33;35.72;;;25.13;;
75516;SDS011;64097;52.548;13.406;2022-11-23T20:13:59;34.53;;;24.70;;
75516;SDS011;64097;52.548;13.406;2022-11-23T20:16:26;36.50;;;25.80;;
75516;SDS011;64097;52.548;13.406;2022-11-23T20:18:56;36.35;;;25.17;;
75516;SDS011;64097;52.548;13.406;2022-11-23T20:21:24;36.15;;;26.08;;
75516;SDS011;64097;52.548;13.406;2022-11-23T20:23:55;37.10;;;25.80;;
75516;SDS011;64097;52.548;13.406;2022-11-23T20:26:22;37.50;;;26.38;;
75516;SDS011;64097;52.548;13.406;2022-11-23T20:28:49;35.42;;;25.42;;
75516;SDS011;64097;52.548;13.406;2022-11-23T20:31:17;36.13;;;25.13;;
75516;SDS011;64097;52.548;13.406;2022-11-23T20:33:44;40.42;;;27.20;;
75516;SDS011;64097;52.548;13.406;2022-11-23T20:38:41;34.05;;;24.67;;
75516;SDS011;64097;52.548;13.406;2022-11-23T20:41:10;39.45;;;26.50;;
75516;SDS011;64097;52.548;13.406;2022-11-23T20:43:40;37.47;;;25.55;;
75516;SDS011;64097;52.548;13.406;2022-11-23T20:46:06;43.33;;;29.20;;
75516;SDS011;64097;52.548;13.406;2022-11-23T20:48:32;39.78;;;27.38;;
75516;SDS011;64097;52.548;13.406;2022-11-23T20:51:00;41.67;;;28.52;;
75516;SDS011;64097;52.548;13.406;2022-11-23T20:53:28;42.38;;;29.75;;
75516;SDS011;64097;52.548;13.406;2022-11-23T20:55:59;42.08;;;27.20;;
75516;SDS011;64097;52.548;13.406;2022-11-23T20:58:29;41.38;;;28.08;;
75516;SDS011;64097;52.548;13.406;2022-11-23T21:00:55;41.42;;;27.88;;
75516;SDS011;64097;52.548;13.406;2022-11-23T21:03:21;43.45;;;30.25;;
75516;SDS011;64097;52.548;13.406;2022-11-23T21:05:46;37.42;;;26.65;;
75516;SDS011;64097;52.548;13.406;2022-11-23T21:08:13;39.13;;;27.30;;
75516;SDS011;64097;52.548;13.406;2022-11-23T21:10:41;41.65;;;28.58;;
75516;SDS011;64097;52.548;13.406;2022-11-23T21:13:25;41.42;;;28.70;;
75516;SDS011;64097;52.548;13.406;2022-11-23T21:18:35;47.58;;;31.90;;
75516;SDS011;64097;52.548;13.406;2022-11-23T21:21:02;45.90;;;30.20;;
75516;SDS011;64097;52.548;13.406;2022-11-23T21:23:28;40.40;;;27.92;;
75516;SDS011;64097;52.548;13.406;2022-11-23T21:26:04;44.88;;;30.67;;
75516;SDS011;64097;52.548;13.406;2022-11-23T21:28:31;47.40;;;31.27;;
75516;SDS011;64097;52.548;13.406;2022-11-23T21:31:05;45.92;;;32.20;;
75516;SDS011;64097;52.548;13.406;2022-11-23T21:33:33;50.15;;;32.22;;
75516;SDS011;64097;52.548;13.406;2022-11-23T21:36:02;49.80;;;33.95;;
75516;SDS011;64097;52.548;13.406;2022-11-23T21:38:29;47.80;;;31.73;;
75516;SDS011;64097;52.548;13.406;2022-11-23T21:40:59;44.20;;;29.38;;
75516;SDS011;64097;52.548;13.406;2022-11-23T21:43:26;44.08;;;30.95;;
75516;SDS011;64097;52.548;13.406;2022-11-23T21:45:58;48.92;;;33.08;;
75516;SDS011;64097;52.548;13.406;2022-11-23T21:48:30;46.60;;;31.77;;
75516;SDS011;64097;52.548;13.406;2022-11-23T21:51:03;46.72;;;31.23;;
75516;SDS011;64097;52.548;13.406;2022-11-23T21:53:31;47.42;;;32.38;;
75516;SDS011;64097;52.548;13.406;2022-11-23T21:56:01;47.40;;;31.85;;
75516;SDS011;64097;52.548;13.406;2022-11-23T21:58:28;48.03;;;31.88;;
75516;SDS011;64097;52.548;13.406;2022-11-23T22:01:00;47.85;;;31.25;;
75516;SDS011;64097;52.548;13.406;2022-11-23T22:05:55;50.08;;;32.88;;
75516;SDS011;64097;52.548;13.406;2022-11-23T22:08:22;48.42;;;32.83;;
75516;SDS011;64097;52.548;13.406;2022-11-23T22:10:48;46.03;;;30.20;;
75516;SDS011;64097;52.548;13.406;2022-11-23T22:13:14;50.05;;;32.15;;
75516;SDS011;64097;52.548;13.406;2022-11-23T22:15:40;50.22;;;32.38;;
75516;SDS011;64097;52.548;13.406;2022-11-23T22:18:05;47.53;;;31.98;;
75516;SDS011;64097;52.548;13.406;2022-11-23T22:20:32;56.42;;;36.60;;
75516;SDS011;64097;52.548;13.406;2022-11-23T22:22:57;48.90;;;31.80;;
75516;SDS011;64097;52.548;13.406;2022-11-23T22:25:23;53.08;;;34.50;;
75516;SDS011;64097;52.548;13.406;2022-11-23T22:27:50;50.35;;;32.90;;
75516;SDS011;64097;52.548;13.406;2022-11-23T22:30:16;48.88;;;30.60;;
75516;SDS011;64097;52.548;13.406;2022-11-23T22:32:42;45.22;;;30.63;;
75516;SDS011;64097;52.548;13.406;2022-11-23T22:35:08;49.92;;;32.45;;
75516;SDS011;64097;52.548;13.406;2022-11-23T22:37:34;46.35;;;31.08;;
75516;SDS011;64097;52.548;13.406;2022-11-23T22:39:59;49.55;;;33.08;;
75516;SDS011;64097;52.548;13.406;2022-11-23T22:42:25;48.60;;;31.25;;
75516;SDS011;64097;52.548;13.406;2022-11-23T22:44:51;51.47;;;33.33;;
75516;SDS011;64097;52.548;13.406;2022-11-23T22:47:16;50.72;;;32.67;;
75516;SDS011;64097;52.548;13.406;2022-11-23T22:49:42;53.58;;;35.03;;
75516;SDS011;64097;52.548;13.406;2022-11-23T22:52:08;47.03;;;30.60;;
75516;SDS011;64097;52.548;13.406;2022-11-23T22:54:40;55.08;;;35.08;;
75516;SDS011;64097;52.548;13.406;2022-11-23T22:57:06;48.92;;;32.45;;